createdAt,value
2017-12-16T00:01:41.943Z,4.20
2017-12-16T00:06:47.859Z,3.57
2017-12-16T00:11:53.273Z,3.43
2017-12-16T00:16:57.766Z,4.20
2017-12-16T00:22:01.211Z,3.60
2017-12-16T00:27:06.587Z,4.20
2017-12-16T00:32:10.626Z,4.13
2017-12-16T00:37:16.175Z,3.07
2017-12-16T00:42:20.079Z,3.17
2017-12-16T00:47:25.075Z,3.50
2017-12-16T00:52:29.797Z,3.70
2017-12-16T00:57:34.201Z,4.20
2017-12-16T01:02:40.453Z,3.87
2017-12-16T01:07:43.271Z,3.90
2017-12-16T01:12:47.808Z,3.33
2017-12-16T01:17:51.518Z,4.27
2017-12-16T01:22:55.520Z,3.90
2017-12-16T01:28:01.511Z,3.80
2017-12-16T01:33:06.455Z,3.70
2017-12-16T01:38:22.419Z,3.10
2017-12-16T01:43:28.117Z,4.90
2017-12-16T01:48:31.934Z,3.33
2017-12-16T01:53:37.672Z,3.30
2017-12-16T01:58:42.805Z,3.00
2017-12-16T02:03:47.581Z,3.40
2017-12-16T02:08:53.832Z,4.00
2017-12-16T02:13:57.850Z,3.73
2017-12-16T02:19:01.072Z,3.50
2017-12-16T02:24:07.058Z,3.83
2017-12-16T02:29:11.446Z,3.57
2017-12-16T02:34:20.384Z,3.40
2017-12-16T02:39:25.813Z,3.43
2017-12-16T02:44:30.899Z,3.37
2017-12-16T02:49:35.252Z,3.67
2017-12-16T02:54:39.162Z,4.00
2017-12-16T02:59:43.241Z,4.23
2017-12-16T03:04:48.833Z,4.87
2017-12-16T03:09:52.941Z,4.07
2017-12-16T03:14:58.088Z,4.20
2017-12-16T03:20:02.303Z,4.97
2017-12-16T03:25:09.473Z,6.03
2017-12-16T03:30:17.017Z,4.70
2017-12-16T03:35:26.435Z,4.90
2017-12-16T03:40:30.659Z,4.03
2017-12-16T03:45:34.119Z,4.00
2017-12-16T03:50:40.952Z,4.37
2017-12-16T03:55:47.533Z,4.20
2017-12-16T04:00:51.603Z,4.63
2017-12-16T04:05:57.943Z,4.00
2017-12-16T04:11:06.636Z,4.53
2017-12-16T04:16:11.970Z,4.70
2017-12-16T04:21:17.094Z,3.57
2017-12-16T04:26:21.684Z,4.60
2017-12-16T04:31:26.298Z,3.30
2017-12-16T04:36:29.307Z,4.93
2017-12-16T04:41:34.349Z,4.97
2017-12-16T04:46:41.673Z,4.27
2017-12-16T04:51:46.668Z,6.17
2017-12-16T04:56:50.536Z,6.17
2017-12-16T05:01:56.227Z,5.57
2017-12-16T05:07:01.945Z,4.30
2017-12-16T05:12:09.296Z,5.00
2017-12-16T05:17:13.309Z,4.97
2017-12-16T05:22:17.003Z,4.70
2017-12-16T05:27:23.034Z,5.37
2017-12-16T05:32:26.813Z,7.10
2017-12-16T05:37:31.037Z,6.70
2017-12-16T05:42:35.811Z,7.27
2017-12-16T05:47:39.489Z,6.50
2017-12-16T05:52:45.804Z,5.50
2017-12-16T05:57:49.510Z,5.83
2017-12-16T06:02:53.136Z,6.57
2017-12-16T06:07:55.987Z,7.60
2017-12-16T06:12:59.474Z,6.20
2017-12-16T06:18:03.364Z,6.63
2017-12-16T06:23:09.955Z,4.83
2017-12-16T06:28:14.243Z,6.37
2017-12-16T06:33:17.228Z,5.60
2017-12-16T06:38:21.666Z,5.27
2017-12-16T06:43:27.334Z,5.93
2017-12-16T06:53:35.108Z,5.90
2017-12-16T06:58:38.421Z,5.93
2017-12-16T07:03:40.959Z,4.70
2017-12-16T07:08:43.493Z,5.83
2017-12-16T07:13:46.038Z,5.80
2017-12-16T07:18:48.574Z,5.70
2017-12-16T07:23:51.218Z,7.10
2017-12-16T07:28:54.547Z,6.87
2017-12-16T07:33:57.085Z,6.77
2017-12-16T07:38:59.622Z,7.50
2017-12-16T07:44:02.922Z,7.07
2017-12-16T07:49:05.469Z,8.83
2017-12-16T07:54:08.011Z,7.80
2017-12-16T07:59:10.556Z,7.07
2017-12-16T08:04:13.106Z,8.57
2017-12-16T08:09:15.659Z,7.60
2017-12-16T08:14:18.198Z,9.20
2017-12-16T08:19:20.747Z,8.00
2017-12-16T08:24:23.286Z,8.70
2017-12-16T08:29:25.827Z,7.57
2017-12-16T08:34:28.363Z,7.77
2017-12-16T08:39:33.722Z,10.97
2017-12-16T08:44:38.313Z,9.50
2017-12-16T08:49:42.710Z,7.50
2017-12-16T08:54:48.214Z,8.20
2017-12-16T08:59:54.017Z,12.03
2017-12-16T09:04:57.738Z,9.30
2017-12-16T09:10:04.444Z,10.57
2017-12-16T09:15:08.257Z,9.63
2017-12-16T09:20:14.587Z,9.60
2017-12-16T09:25:22.432Z,10.13
2017-12-16T09:30:31.650Z,8.63
2017-12-16T09:35:37.497Z,9.27
2017-12-16T09:40:41.188Z,11.37
2017-12-16T09:45:47.008Z,10.30
2017-12-16T09:50:51.028Z,12.60
2017-12-16T09:56:00.199Z,10.77
2017-12-16T10:01:03.754Z,12.70
2017-12-16T10:06:09.442Z,11.40
2017-12-16T10:11:16.177Z,11.10
2017-12-16T10:16:24.070Z,11.07
2017-12-16T10:21:32.087Z,10.23
2017-12-16T10:26:35.192Z,10.10
2017-12-16T10:31:43.057Z,10.10
2017-12-16T10:36:57.053Z,10.03
2017-12-16T10:42:01.692Z,8.57
2017-12-16T10:47:07.074Z,11.17
2017-12-16T10:52:09.671Z,16.07
2017-12-16T10:57:12.223Z,12.73
2017-12-16T11:02:14.776Z,12.97
2017-12-16T11:07:17.338Z,10.63
2017-12-16T11:12:19.902Z,9.77
2017-12-16T11:17:22.678Z,10.20
2017-12-16T11:22:25.263Z,10.20
2017-12-16T11:27:27.846Z,12.27
2017-12-16T11:32:30.409Z,11.60
2017-12-16T11:37:32.957Z,11.37
2017-12-16T11:42:35.528Z,10.90
2017-12-16T11:47:38.106Z,10.43
2017-12-16T11:52:40.692Z,11.83
2017-12-16T11:57:44.011Z,12.47
2017-12-16T12:02:47.337Z,10.10
2017-12-16T12:07:50.324Z,9.97
2017-12-16T12:12:52.866Z,9.13
2017-12-16T12:17:55.409Z,10.60
2017-12-16T12:22:57.995Z,9.80
2017-12-16T12:28:00.538Z,9.57
2017-12-16T12:33:03.103Z,9.20
2017-12-16T12:38:05.655Z,8.53
2017-12-16T12:43:08.213Z,9.73
2017-12-16T12:48:10.762Z,7.93
2017-12-16T12:53:24.107Z,8.90
2017-12-16T12:58:28.553Z,8.33
2017-12-16T13:03:33.596Z,9.40
2017-12-16T13:08:39.970Z,7.30
2017-12-16T13:13:46.802Z,8.30
2017-12-16T13:24:03.612Z,7.80
2017-12-16T13:29:06.643Z,9.20
2017-12-16T13:34:20.584Z,8.33
2017-12-16T13:39:25.355Z,8.20
2017-12-16T13:44:34.304Z,8.80
2017-12-16T13:49:38.577Z,8.73
2017-12-16T13:54:44.538Z,8.70
2017-12-16T13:59:50.205Z,6.93
2017-12-16T14:04:55.892Z,7.30
2017-12-16T14:10:02.929Z,7.13
2017-12-16T14:15:06.412Z,7.80
2017-12-16T14:20:10.839Z,7.80
2017-12-16T14:25:14.658Z,9.17
2017-12-16T14:30:17.794Z,8.90
2017-12-16T14:35:25.088Z,9.60
2017-12-16T14:40:28.631Z,8.00
2017-12-16T14:45:33.605Z,9.80
2017-12-16T14:50:37.460Z,9.73
2017-12-16T14:55:42.034Z,10.40
2017-12-16T15:00:45.635Z,8.43
2017-12-16T15:05:51.862Z,8.77
2017-12-16T15:10:56.162Z,8.70
2017-12-16T15:16:01.507Z,8.60
2017-12-16T15:21:06.443Z,8.20
2017-12-16T15:26:14.906Z,8.90
2017-12-16T15:31:20.076Z,9.93
2017-12-16T15:36:22.889Z,8.57
2017-12-16T15:41:29.082Z,9.00
2017-12-16T15:46:32.708Z,10.07
2017-12-16T15:51:38.302Z,9.00
2017-12-16T15:56:43.247Z,8.07
2017-12-16T16:01:45.949Z,9.90
2017-12-16T16:06:50.108Z,9.40
2017-12-16T16:11:55.950Z,10.83
2017-12-16T16:16:59.093Z,11.30
2017-12-16T16:22:02.522Z,11.80
2017-12-16T16:27:05.644Z,10.33
2017-12-16T16:32:08.541Z,10.73
2017-12-16T16:37:11.866Z,10.30
2017-12-16T16:42:14.898Z,12.53
2017-12-16T16:47:17.901Z,10.13
2017-12-16T16:52:20.904Z,11.27
2017-12-16T16:57:23.621Z,13.63
2017-12-16T17:02:26.548Z,11.67
2017-12-16T17:07:30.228Z,9.90
2017-12-16T17:12:33.308Z,10.97
2017-12-16T17:17:35.900Z,13.60
2017-12-16T17:22:38.451Z,14.17
2017-12-16T17:27:41.012Z,10.73
2017-12-16T17:32:43.559Z,9.17
2017-12-16T17:37:46.103Z,8.73
2017-12-16T17:42:48.639Z,10.17
2017-12-16T17:47:51.180Z,9.47
2017-12-16T17:52:53.731Z,9.83
2017-12-16T17:57:56.269Z,11.57
2017-12-16T18:02:58.816Z,10.40
2017-12-16T18:08:01.367Z,8.53
2017-12-16T18:13:03.894Z,8.97
2017-12-16T18:18:06.419Z,8.70
2017-12-16T18:23:08.962Z,10.00
2017-12-16T18:28:11.579Z,10.33
2017-12-16T18:33:14.903Z,9.50
2017-12-16T18:38:17.447Z,10.20
2017-12-16T18:43:20.059Z,10.13
2017-12-16T18:48:22.632Z,9.33
2017-12-16T18:53:25.179Z,10.97
2017-12-16T18:58:27.755Z,9.97
2017-12-16T19:03:30.302Z,10.87
2017-12-16T19:08:32.838Z,10.17
2017-12-16T19:13:35.603Z,9.30
2017-12-16T19:18:38.924Z,10.33
2017-12-16T19:23:42.243Z,10.13
2017-12-16T19:28:45.559Z,11.10
2017-12-16T19:33:48.106Z,12.80
2017-12-16T19:38:50.645Z,13.30
2017-12-16T19:43:53.967Z,10.97
2017-12-16T19:48:56.603Z,9.97
2017-12-16T19:53:59.139Z,10.27
2017-12-16T19:59:01.691Z,10.60
2017-12-16T20:04:04.222Z,9.10
2017-12-16T20:09:08.388Z,10.80
2017-12-16T20:14:12.122Z,9.10
2017-12-16T20:19:15.030Z,9.50
2017-12-16T20:24:21.591Z,9.20
2017-12-16T20:29:25.657Z,10.77
2017-12-16T20:34:30.159Z,10.43
2017-12-16T20:39:33.194Z,11.70
2017-12-16T20:44:36.272Z,11.33
2017-12-16T20:49:39.405Z,11.10
2017-12-16T20:54:44.318Z,11.73
2017-12-16T20:59:48.494Z,12.53
2017-12-16T21:04:51.639Z,12.50
2017-12-16T21:09:54.592Z,12.60
2017-12-16T21:14:57.511Z,12.17
2017-12-16T21:20:01.692Z,13.00
2017-12-16T21:25:05.264Z,13.07
2017-12-16T21:30:08.391Z,12.83
2017-12-16T21:35:12.417Z,14.73
2017-12-16T21:40:16.280Z,14.13
2017-12-16T21:45:21.104Z,12.83
2017-12-16T21:50:24.790Z,12.70
2017-12-16T21:55:28.043Z,11.50
2017-12-16T22:00:31.593Z,11.13
2017-12-16T22:05:34.586Z,12.43
2017-12-16T22:10:37.950Z,10.83
2017-12-16T22:15:41.862Z,11.03
2017-12-16T22:20:48.082Z,11.23
2017-12-16T22:25:51.525Z,9.57
2017-12-16T22:30:54.584Z,10.90
2017-12-16T22:35:57.684Z,10.20
2017-12-16T22:41:02.567Z,10.10
2017-12-16T22:46:06.426Z,10.97
2017-12-16T22:51:09.400Z,11.90
2017-12-16T22:56:13.542Z,11.07
2017-12-16T23:01:17.531Z,10.63
2017-12-16T23:06:20.469Z,12.40
2017-12-16T23:11:23.316Z,11.50
2017-12-16T23:16:27.019Z,12.67
2017-12-16T23:21:31.424Z,13.10
2017-12-16T23:26:34.225Z,11.93
2017-12-16T23:31:38.253Z,11.67
2017-12-16T23:36:41.581Z,11.73
2017-12-16T23:41:45.172Z,10.97
2017-12-16T23:46:49.720Z,9.07
2017-12-16T23:51:53.492Z,10.30
2017-12-16T23:56:56.370Z,9.87
